Kansas City, Missouri
Traffic Map
Current Weather Conditions
Kansas City, Missouri
Overcast
Overcast
51°
Feels Like: 51°
Wind Chill: 51° Ceiling: 2200
Heat Index: 51° Visibility: 10mi
Dew Point: 42° Wind: 10mph
Humidity: 71% Direction: 80° (E)
Pressure: 29.98in Gusts: 0mph
Raw Report DataKMKC 261554Z 08009KT 10SM OVC022 11/06 A2998 RMK AO2 SLP154 T01060056 PNO $
Traffic Incident Summary
Active as of:
Severity:
Category:
InformationThere was an issue retrieving the traffic information for this location. Please try a different location or try again shortly.
Advertisements
Track Severe Weather on mobile